Time;durP1;ratioP1;P1;durP2;ratioP2;P2;SDS_P1;SDS_P2;PMS_P1;PMS_P2;Temp;Humidity;BMP_temperature;BMP_pressure;BME280_temperature;BME280_humidity;BME280_pressure;Samples;Min_cycle;Max_cycle;Signal;HPM_P1;HPM_P2
2021/06/01 00:01:31;;;;;;;18.80;11.10;;;7.80;99.90;;;;;;5117457;28;20213;-85
2021/06/01 00:03:58;;;;;;;21.47;10.77;;;;;;;;;;5115037;28;20231;-85
2021/06/01 00:06:24;;;;;;;23.00;11.27;;;;;;;;;;5115666;27;20239;-85
2021/06/01 00:08:51;;;;;;;26.33;12.37;;;7.70;99.90;;;;;;5115185;28;20204;-85
2021/06/01 00:11:17;;;;;;;27.27;11.47;;;7.70;99.90;;;;;;5113950;27;20234;-85
2021/06/01 00:13:44;;;;;;;23.33;12.00;;;;;;;;;;5116286;28;20186;-85
2021/06/01 00:16:11;;;;;;;18.23;10.47;;;7.60;99.90;;;;;;5114309;28;20276;-85
2021/06/01 00:18:38;;;;;;;19.27;10.77;;;7.60;99.90;;;;;;5114265;28;20237;-85
2021/06/01 00:21:07;;;;;;;17.60;10.37;;;7.60;99.90;;;;;;5115178;28;20260;-85
2021/06/01 00:23:36;;;;;;;22.37;11.60;;;7.60;99.90;;;;;;5116438;28;20215;-84
2021/06/01 00:26:03;;;;;;;20.77;11.53;;;7.50;99.90;;;;;;5115297;28;20182;-84
2021/06/01 00:28:29;;;;;;;23.90;10.97;;;;;;;;;;5116928;28;20670;-84
2021/06/01 00:30:54;;;;;;;22.97;11.60;;;7.50;99.90;;;;;;5118093;28;20182;-86
2021/06/01 00:33:20;;;;;;;28.80;11.30;;;7.40;99.90;;;;;;5118673;28;20234;-86
2021/06/01 00:35:46;;;;;;;24.23;11.00;;;7.40;99.90;;;;;;5118569;28;20180;-83
2021/06/01 00:38:11;;;;;;;23.07;10.50;;;7.40;99.90;;;;;;5116385;28;20196;-84
2021/06/01 00:40:37;;;;;;;21.80;10.30;;;7.40;99.90;;;;;;5095979;28;20506;-84
2021/06/01 00:43:03;;;;;;;22.33;11.43;;;8.90;99.90;;;;;;5112576;28;20239;-85
2021/06/01 00:45:28;;;;;;;18.23;10.23;;;6.90;99.90;;;;;;5113209;28;20198;-84
2021/06/01 00:47:55;;;;;;;21.40;11.50;;;7.30;99.90;;;;;;5113928;28;20203;-84
2021/06/01 00:50:27;;;;;;;19.20;10.73;;;7.30;99.90;;;;;;5113658;28;20264;-84
2021/06/01 00:52:53;;;;;;;22.87;11.03;;;7.20;99.90;;;;;;5113190;28;20213;-84
2021/06/01 00:55:19;;;;;;;19.50;10.50;;;;;;;;;;5114246;28;20186;-84
2021/06/01 00:57:45;;;;;;;21.30;10.43;;;7.20;99.90;;;;;;5114108;28;20187;-84
2021/06/01 01:02:57;;;;;;;18.90;11.30;;;;;;;;;;5113119;28;20222;-85
2021/06/01 01:05:27;;;;;;;20.97;12.03;;;7.20;99.90;;;;;;5112424;28;20174;-84
2021/06/01 01:08:05;;;;;;;20.97;11.20;;;7.10;99.90;;;;;;5112763;28;20174;-84
2021/06/01 01:10:36;;;;;;;28.80;11.23;;;7.10;99.90;;;;;;5112461;28;20528;-84
2021/06/01 01:13:05;;;;;;;20.40;10.83;;;7.00;99.90;;;;;;5113783;28;20673;-84
2021/06/01 01:15:33;;;;;;;26.50;11.57;;;7.00;99.90;;;;;;5113677;28;20178;-84
2021/06/01 01:18:04;;;;;;;20.77;10.60;;;6.90;99.90;;;;;;5114020;28;20178;-84
2021/06/01 01:20:36;;;;;;;20.63;10.53;;;6.90;99.90;;;;;;5112943;28;20238;-84
2021/06/01 01:23:11;;;;;;;23.33;10.93;;;6.80;99.90;;;;;;5113443;28;20185;-84
2021/06/01 01:25:36;;;;;;;18.07;10.00;;;6.90;99.90;;;;;;5113604;28;20173;-84
2021/06/01 01:28:09;;;;;;;21.97;11.03;;;6.90;99.90;;;;;;5112147;28;20665;-84
2021/06/01 01:30:49;;;;;;;16.70;9.83;;;6.70;99.90;;;;;;5113931;28;20166;-84
2021/06/01 01:33:20;;;;;;;18.70;9.73;;;6.80;99.90;;;;;;5113206;28;20209;-84
2021/06/01 01:35:50;;;;;;;20.20;10.50;;;6.80;99.90;;;;;;5113586;28;20197;-84
2021/06/01 01:38:16;;;;;;;21.17;10.27;;;6.90;99.90;;;;;;5114275;28;20178;-84
2021/06/01 01:40:45;;;;;;;17.00;9.33;;;7.10;99.90;;;;;;5114647;28;20280;-84
2021/06/01 01:43:15;;;;;;;21.03;9.77;;;6.80;99.90;;;;;;5113863;28;20575;-84
2021/06/01 01:45:46;;;;;;;14.23;9.23;;;6.80;99.90;;;;;;5112501;28;20170;-83
2021/06/01 01:51:12;;;;;;;18.80;9.60;;;6.80;99.90;;;;;;5113037;28;20223;-83
2021/06/01 01:53:59;;;;;;;18.13;9.30;;;6.70;99.90;;;;;;5113439;28;20173;-84
2021/06/01 01:56:36;;;;;;;17.17;9.20;;;6.70;99.90;;;;;;5112913;28;20173;-83
2021/06/01 01:59:09;;;;;;;16.30;9.53;;;6.60;99.90;;;;;;5113156;28;20173;-83
2021/06/01 02:01:37;;;;;;;20.53;9.93;;;6.60;99.90;;;;;;5113065;28;20182;-83
2021/06/01 02:04:04;;;;;;;15.90;8.90;;;6.60;99.90;;;;;;5113177;28;20337;-84
2021/06/01 02:06:31;;;;;;;17.27;9.13;;;6.60;99.90;;;;;;5112860;28;20173;-83
2021/06/01 02:08:57;;;;;;;14.23;8.43;;;6.60;99.90;;;;;;5094850;28;20188;-83
2021/06/01 02:11:23;;;;;;;17.37;9.13;;;6.50;99.90;;;;;;5112289;28;20260;-83
2021/06/01 02:14:03;;;;;;;13.57;8.10;;;6.50;99.90;;;;;;5111524;28;20638;-83
2021/06/01 02:16:31;;;;;;;21.50;8.90;;;6.40;99.90;;;;;;5112878;28;20162;-83
2021/06/01 02:18:57;;;;;;;15.73;8.60;;;6.40;99.90;;;;;;5112839;28;20244;-83
2021/06/01 02:24:25;;;;;;;18.83;8.80;;;6.40;99.90;;;;;;5112427;28;20589;-84
2021/06/01 02:27:20;;;;;;;18.87;9.03;;;6.40;99.90;;;;;;5111777;28;20176;-83
2021/06/01 02:30:08;;;;;;;15.47;9.33;;;6.40;99.90;;;;;;5113057;28;20180;-83
2021/06/01 02:32:35;;;;;;;19.03;9.27;;;6.40;99.90;;;;;;5112349;28;20292;-83
2021/06/01 02:35:06;;;;;;;17.80;10.10;;;6.40;99.90;;;;;;5112180;28;20174;-83
2021/06/01 02:37:33;;;;;;;19.90;9.10;;;6.40;99.90;;;;;;5116153;28;20692;-83
2021/06/01 02:40:00;;;;;;;16.37;9.10;;;6.10;99.90;;;;;;5116590;28;20174;-83
2021/06/01 02:42:26;;;;;;;13.00;8.97;;;6.40;99.90;;;;;;5116063;28;20166;-84
2021/06/01 02:44:52;;;;;;;20.27;9.97;;;6.40;99.90;;;;;;5115449;28;20185;-84
2021/06/01 02:47:19;;;;;;;18.40;9.20;;;6.40;99.90;;;;;;5114723;28;20170;-84
2021/06/01 02:49:45;;;;;;;20.00;9.17;;;6.30;99.90;;;;;;5116595;28;20205;-83
2021/06/01 02:52:12;;;;;;;17.40;9.40;;;6.00;99.90;;;;;;5115308;28;20222;-83
2021/06/01 02:54:37;;;;;;;23.47;11.10;;;6.30;99.90;;;;;;5114889;28;20180;-83
2021/06/01 02:57:04;;;;;;;14.80;9.33;;;6.40;99.90;;;;;;5115992;28;20535;-83
2021/06/01 02:59:30;;;;;;;20.07;10.17;;;;;;;;;;5115869;28;20173;-84
2021/06/01 03:01:56;;;;;;;14.63;9.17;;;;;;;;;;5114524;28;20553;-84
2021/06/01 03:04:22;;;;;;;17.07;8.30;;;6.40;99.90;;;;;;5116071;28;20253;-84
2021/06/01 03:06:48;;;;;;;17.00;9.60;;;;;;;;;;5097784;28;20588;-84
2021/06/01 03:09:13;;;;;;;14.60;8.83;;;6.40;99.90;;;;;;5122841;28;20209;-85
2021/06/01 03:11:41;;;;;;;20.07;10.33;;;6.40;99.90;;;;;;5114894;28;20694;-84
2021/06/01 03:14:07;;;;;;;16.00;9.27;;;6.50;99.90;;;;;;5098410;28;20182;-84
2021/06/01 03:16:32;;;;;;;16.10;9.57;;;6.50;99.90;;;;;;5115574;28;20214;-84
2021/06/01 03:18:58;;;;;;;19.63;10.80;;;6.60;99.90;;;;;;5115158;28;20257;-84
2021/06/01 03:21:24;;;;;;;22.93;9.30;;;6.60;99.90;;;;;;5115943;28;20362;-83
2021/06/01 03:23:50;;;;;;;15.93;9.37;;;6.70;99.90;;;;;;5116195;28;20170;-83
2021/06/01 03:26:17;;;;;;;16.73;11.10;;;6.80;99.90;;;;;;5115816;28;20177;-85
2021/06/01 03:28:42;;;;;;;19.00;10.07;;;6.90;99.90;;;;;;5115565;28;20182;-84
2021/06/01 03:31:09;;;;;;;17.90;10.33;;;7.00;99.90;;;;;;5115539;28;20182;-84
2021/06/01 03:33:35;;;;;;;19.13;9.67;;;;;;;;;;5115268;28;20244;-84
2021/06/01 03:36:01;;;;;;;17.03;10.07;;;7.10;99.90;;;;;;5114509;28;20182;-83
2021/06/01 03:38:27;;;;;;;16.53;9.97;;;7.20;99.90;;;;;;5115246;28;20218;-85
2021/06/01 03:40:54;;;;;;;22.73;10.43;;;7.20;99.90;;;;;;5114373;28;20206;-84
2021/06/01 03:43:20;;;;;;;15.10;9.37;;;7.30;99.90;;;;;;5110781;28;20277;-84
2021/06/01 03:45:45;;;;;;;16.73;10.27;;;7.40;99.90;;;;;;5104770;28;20182;-82
2021/06/01 03:48:11;;;;;;;23.57;10.13;;;7.50;99.90;;;;;;5116812;27;20194;-85
2021/06/01 03:50:37;;;;;;;19.47;9.93;;;7.70;99.90;;;;;;5110443;28;20211;-84
2021/06/01 03:53:04;;;;;;;19.47;10.23;;;7.60;99.90;;;;;;5113586;28;20229;-84
2021/06/01 03:55:30;;;;;;;15.43;10.00;;;;;;;;;;5107651;27;20202;-84
2021/06/01 03:57:56;;;;;;;17.57;10.50;;;7.90;99.90;;;;;;5092995;28;20187;-84
2021/06/01 04:00:25;;;;;;;21.40;9.90;;;8.10;99.90;;;;;;5091526;28;20689;-85
2021/06/01 04:02:51;;;;;;;19.80;10.30;;;;;;;;;;5106501;28;20216;-84
2021/06/01 04:05:17;;;;;;;20.83;9.27;;;8.40;99.90;;;;;;5110783;28;20197;-83
2021/06/01 04:07:45;;;;;;;15.50;9.87;;;8.50;99.90;;;;;;5111998;28;20189;-83
2021/06/01 04:10:11;;;;;;;22.27;9.83;;;8.60;99.90;;;;;;5113108;28;20190;-84
2021/06/01 04:12:37;;;;;;;15.77;10.10;;;8.80;99.90;;;;;;5090637;28;20226;-84
2021/06/01 04:15:03;;;;;;;22.57;9.53;;;9.00;99.90;;;;;;5106715;28;20201;-84
2021/06/01 04:17:29;;;;;;;13.93;9.53;;;9.20;99.90;;;;;;5113504;28;20181;-84
2021/06/01 04:19:55;;;;;;;21.47;9.93;;;9.40;99.90;;;;;;5112248;28;20185;-85
2021/06/01 04:22:21;;;;;;;17.93;9.83;;;;;;;;;;5097729;28;20646;-85
2021/06/01 04:24:47;;;;;;;20.17;9.80;;;9.80;99.90;;;;;;5092386;28;20186;-84
2021/06/01 04:27:12;;;;;;;20.37;8.97;;;10.00;99.90;;;;;;5092063;28;20650;-85
2021/06/01 04:29:38;;;;;;;19.63;8.97;;;10.10;99.90;;;;;;5092410;28;20188;-85
2021/06/01 04:32:04;;;;;;;15.17;8.50;;;10.30;99.90;;;;;;5092840;28;20308;-85
2021/06/01 04:34:30;;;;;;;13.20;8.30;;;10.40;99.90;;;;;;5107720;28;20182;-86
2021/06/01 04:36:56;;;;;;;13.73;8.57;;;10.50;99.90;;;;;;5093953;28;20189;-85
2021/06/01 04:39:21;;;;;;;15.83;8.60;;;10.70;99.90;;;;;;5093910;28;20209;-85
2021/06/01 04:41:47;;;;;;;15.03;8.43;;;;;;;;;;5110198;28;20232;-86
2021/06/01 04:44:13;;;;;;;16.05;7.28;;;11.10;99.90;;;;;;5110751;28;20667;-86
2021/06/01 04:46:39;;;;;;;16.07;8.30;;;;;;;;;;5110294;28;20185;-87
2021/06/01 04:49:05;;;;;;;12.70;7.07;;;11.50;99.90;;;;;;5112448;28;20230;-85
2021/06/01 04:51:31;;;;;;;18.85;8.02;;;11.60;99.90;;;;;;5093661;28;20260;-86
2021/06/01 04:53:59;;;;;;;11.63;7.38;;;11.70;99.90;;;;;;5093885;28;20553;-87
2021/06/01 04:56:25;;;;;;;12.03;6.70;;;11.90;99.90;;;;;;5110478;28;20761;-84
2021/06/01 04:58:52;;;;;;;19.63;6.85;;;12.00;99.90;;;;;;5094883;28;20548;-86
2021/06/01 05:01:18;;;;;;;11.48;6.68;;;12.20;99.90;;;;;;5094800;28;20708;-85
2021/06/01 05:03:44;;;;;;;13.02;7.13;;;12.30;99.90;;;;;;5112288;28;20181;-85
2021/06/01 05:06:10;;;;;;;13.57;8.10;;;12.50;99.90;;;;;;5113220;28;20170;-85
2021/06/01 05:08:36;;;;;;;14.27;7.75;;;12.70;99.90;;;;;;5129907;27;20634;-86
2021/06/01 05:11:03;;;;;;;19.60;8.05;;;12.90;99.90;;;;;;5114689;28;20272;-86
2021/06/01 05:13:29;;;;;;;21.67;8.00;;;13.00;99.90;;;;;;5113831;28;20669;-84
2021/06/01 05:15:55;;;;;;;17.70;7.72;;;13.10;99.90;;;;;;5113327;28;20178;-85
2021/06/01 05:18:21;;;;;;;22.40;8.32;;;13.30;99.90;;;;;;5112074;28;20184;-85
2021/06/01 05:20:47;;;;;;;15.23;7.78;;;13.80;99.90;;;;;;5113299;28;20174;-85
2021/06/01 05:23:14;;;;;;;13.52;7.53;;;13.40;99.90;;;;;;5113662;28;20181;-85
2021/06/01 05:25:40;;;;;;;15.30;8.00;;;13.50;99.90;;;;;;5112969;28;20257;-84
2021/06/01 05:28:06;;;;;;;16.92;7.78;;;13.60;99.90;;;;;;5113630;28;20197;-85
2021/06/01 05:31:44;;;;;;;15.18;9.00;;;13.70;99.90;;;;;;5112063;28;20615;-85
2021/06/01 05:33:34;;;;;;;16.55;7.22;;;13.80;99.90;;;;;;5108175;28;20248;-84
2021/06/01 05:36:01;;;;;;;11.35;7.40;;;13.90;99.90;;;;;;5112258;28;20188;-85
2021/06/01 05:38:30;;;;;;;15.05;7.55;;;14.00;99.90;;;;;;5113292;28;20533;-85
2021/06/01 05:40:56;;;;;;;15.45;8.57;;;14.10;99.90;;;;;;5112019;28;20264;-85
2021/06/01 05:43:22;;;;;;;12.85;7.82;;;14.30;99.90;;;;;;5112404;28;20186;-84
2021/06/01 05:45:48;;;;;;;14.77;7.40;;;14.40;99.90;;;;;;5111813;28;20182;-85
2021/06/01 05:48:14;;;;;;;17.27;8.57;;;14.50;99.90;;;;;;5112208;28;20178;-84
2021/06/01 05:50:40;;;;;;;17.13;8.20;;;14.60;99.90;;;;;;5112969;28;20177;-85
2021/06/01 05:53:08;;;;;;;14.20;7.72;;;14.70;99.90;;;;;;5113352;28;20220;-85
2021/06/01 05:55:34;;;;;;;17.88;9.38;;;14.70;99.90;;;;;;5113086;28;20181;-85
2021/06/01 05:58:00;;;;;;;14.55;8.82;;;14.70;99.90;;;;;;5113258;28;20220;-85
2021/06/01 06:00:28;;;;;;;13.57;7.45;;;14.80;99.90;;;;;;5113238;28;20226;-85
2021/06/01 06:02:54;;;;;;;14.35;8.27;;;14.90;99.90;;;;;;5112391;28;20197;-85
2021/06/01 06:05:20;;;;;;;14.93;7.85;;;14.90;99.90;;;;;;5111983;28;20170;-84
2021/06/01 06:07:45;;;;;;;17.45;7.65;;;15.00;99.90;;;;;;5111899;28;20627;-84
2021/06/01 06:10:12;;;;;;;13.05;7.68;;;15.00;99.90;;;;;;5114147;28;20173;-83
2021/06/01 06:12:38;;;;;;;16.45;8.55;;;15.20;99.90;;;;;;5098468;28;20248;-85
2021/06/01 06:15:10;;;;;;;18.42;7.50;;;15.30;99.90;;;;;;5115755;28;20170;-83
2021/06/01 06:17:45;;;;;;;31.90;8.25;;;15.30;99.90;;;;;;5115135;28;20189;-83
2021/06/01 06:20:12;;;;;;;17.13;7.97;;;15.50;99.90;;;;;;5115496;28;20177;-83
2021/06/01 06:22:39;;;;;;;13.13;7.32;;;15.70;99.90;;;;;;5116950;28;20185;-83
2021/06/01 06:25:06;;;;;;;14.80;6.97;;;15.80;99.90;;;;;;5116557;28;20184;-83
2021/06/01 06:27:32;;;;;;;13.45;7.30;;;15.80;99.90;;;;;;5112037;28;20189;-84
2021/06/01 06:29:58;;;;;;;14.68;6.85;;;15.80;99.90;;;;;;5116058;28;20174;-83
2021/06/01 06:32:24;;;;;;;16.10;6.50;;;15.80;99.90;;;;;;5116148;28;20216;-83
2021/06/01 06:34:51;;;;;;;18.38;7.55;;;15.90;99.90;;;;;;5116634;28;20181;-83
2021/06/01 06:37:17;;;;;;;16.80;6.30;;;15.90;99.90;;;;;;5116354;28;20177;-83
2021/06/01 06:39:43;;;;;;;11.52;5.43;;;16.00;99.90;;;;;;5116111;28;20170;-82
2021/06/01 06:42:08;;;;;;;10.70;5.70;;;15.90;99.90;;;;;;5114880;28;20182;-83
2021/06/01 06:44:36;;;;;;;10.13;5.50;;;15.90;99.90;;;;;;5114951;28;20582;-83
2021/06/01 06:49:35;;;;;;;11.90;4.28;;;15.90;99.20;;;;;;5116212;28;20216;-83
2021/06/01 06:52:02;;;;;;;11.07;4.47;;;16.10;97.70;;;;;;5115631;28;20214;-83
2021/06/01 06:54:28;;;;;;;12.68;5.13;;;16.20;96.70;;;;;;5115770;28;20260;-84
2021/06/01 06:56:54;;;;;;;9.13;4.20;;;16.50;95.00;;;;;;5115552;28;20210;-84
2021/06/01 06:59:20;;;;;;;9.13;4.20;;;16.50;92.40;;;;;;5115589;28;20531;-83
2021/06/01 07:01:46;;;;;;;14.07;4.65;;;;;;;;;;5115376;28;20193;-83
2021/06/01 07:04:12;;;;;;;11.95;4.40;;;16.60;91.70;;;;;;5114439;28;20182;-83
2021/06/01 07:06:38;;;;;;;7.47;3.65;;;16.70;90.20;;;;;;5115331;28;20185;-83
2021/06/01 07:09:05;;;;;;;5.45;3.25;;;16.60;83.00;;;;;;5115179;28;20178;-85
2021/06/01 07:11:30;;;;;;;3.10;2.70;;;16.50;80.20;;;;;;5115400;28;20232;-84
2021/06/01 07:14:06;;;;;;;5.22;2.40;;;16.40;79.10;;;;;;5131510;27;20178;-83
2021/06/01 07:16:32;;;;;;;5.35;1.90;;;16.50;75.50;;;;;;5115770;28;20633;-83
2021/06/01 07:18:57;;;;;;;4.82;2.92;;;16.50;73.60;;;;;;5115502;28;20193;-83
2021/06/01 07:21:23;;;;;;;5.85;2.53;;;16.60;75.00;;;;;;5114750;28;20568;-83
2021/06/01 07:23:48;;;;;;;3.13;2.28;;;16.60;72.60;;;;;;5113655;28;20181;-82
2021/06/01 07:26:14;;;;;;;4.88;2.28;;;16.70;70.00;;;;;;5114600;28;20186;-82
2021/06/01 07:28:40;;;;;;;3.53;2.30;;;16.80;68.30;;;;;;5114910;28;20170;-82
2021/06/01 07:31:07;;;;;;;8.25;2.63;;;16.80;66.80;;;;;;5115169;28;20178;-84
2021/06/01 07:33:33;;;;;;;8.20;3.13;;;16.90;69.30;;;;;;5112084;28;20241;-82
2021/06/01 07:35:59;;;;;;;6.43;3.10;;;16.90;70.10;;;;;;5111041;28;20177;-83
2021/06/01 07:38:26;;;;;;;4.05;2.85;;;17.00;70.40;;;;;;5110947;28;20178;-84
2021/06/01 07:40:51;;;;;;;11.90;3.42;;;17.10;72.60;;;;;;5112572;28;20285;-84
2021/06/01 07:43:17;;;;;;;6.20;3.25;;;17.20;71.30;;;;;;5111683;28;20709;-83
2021/06/01 07:45:43;;;;;;;5.28;2.97;;;17.40;72.70;;;;;;5111660;28;20200;-84
2021/06/01 07:48:09;;;;;;;5.20;2.50;;;;;;;;;;5112679;28;20773;-83
2021/06/01 07:50:34;;;;;;;6.40;3.20;;;17.70;67.70;;;;;;5114394;28;20178;-83
2021/06/01 07:53:00;;;;;;;40.00;5.65;;;17.90;69.70;;;;;;5112898;28;20695;-83
2021/06/01 07:55:26;;;;;;;4.50;2.40;;;;;;;;;;5114811;28;20178;-83
2021/06/01 07:57:52;;;;;;;5.55;2.92;;;18.30;60.60;;;;;;5114181;28;20642;-84
2021/06/01 08:00:21;;;;;;;10.25;2.83;;;18.30;64.30;;;;;;5114689;28;20181;-84
2021/06/01 08:02:46;;;;;;;10.48;3.00;;;18.20;66.40;;;;;;5114548;28;20657;-84
2021/06/01 08:05:15;;;;;;;7.68;2.92;;;18.40;66.40;;;;;;5114923;28;20174;-84
2021/06/01 08:07:41;;;;;;;7.95;2.65;;;18.60;65.00;;;;;;5113712;28;20178;-84
2021/06/01 08:10:07;;;;;;;4.15;2.10;;;18.60;60.50;;;;;;5114295;28;20180;-83
2021/06/01 08:12:36;;;;;;;4.93;2.20;;;18.70;60.60;;;;;;5113138;28;20246;-83
2021/06/01 08:15:03;;;;;;;2.58;1.75;;;18.70;60.20;;;;;;5114224;28;20182;-84
2021/06/01 08:17:29;;;;;;;20.95;2.97;;;18.90;59.00;;;;;;5114563;28;20201;-84
2021/06/01 08:19:56;;;;;;;9.75;2.45;;;18.80;57.40;;;;;;5112863;28;20194;-84
2021/06/01 08:24:48;;;;;;;7.80;3.13;;;18.70;58.20;;;;;;5113026;28;20294;-83
2021/06/01 08:27:13;;;;;;;4.60;2.28;;;18.70;59.00;;;;;;5113136;28;20174;-83
2021/06/01 08:29:39;;;;;;;9.73;3.40;;;18.90;60.20;;;;;;5114189;28;20220;-83
2021/06/01 08:32:05;;;;;;;7.40;3.80;;;19.10;58.00;;;;;;5112407;28;20229;-83
2021/06/01 08:34:31;;;;;;;4.97;1.92;;;19.40;57.80;;;;;;5113700;28;20207;-85
2021/06/01 08:36:57;;;;;;;3.15;2.15;;;19.50;56.20;;;;;;5113832;28;20173;-83
2021/06/01 08:39:26;;;;;;;5.55;1.98;;;19.70;55.00;;;;;;5114053;28;20174;-84
2021/06/01 08:41:55;;;;;;;2.35;1.90;;;19.60;52.70;;;;;;5112407;28;20200;-84
2021/06/01 08:44:22;;;;;;;7.25;2.33;;;19.30;54.00;;;;;;5113875;28;20166;-84
2021/06/01 08:46:50;;;;;;;4.15;2.20;;;19.00;54.10;;;;;;5113483;28;20178;-84
2021/06/01 08:49:18;;;;;;;4.13;2.22;;;18.70;57.10;;;;;;5112452;28;20200;-87
2021/06/01 08:51:44;;;;;;;4.75;2.40;;;18.40;56.40;;;;;;5112626;28;20213;-85
2021/06/01 08:54:10;;;;;;;4.75;2.05;;;18.30;57.10;;;;;;5112265;28;20174;-84
2021/06/01 08:56:36;;;;;;;3.95;2.30;;;18.20;57.50;;;;;;5112543;28;20185;-84
2021/06/01 08:59:03;;;;;;;5.57;2.30;;;;;;;;;;5113410;28;20178;-85
2021/06/01 09:01:28;;;;;;;4.22;2.30;;;18.00;57.90;;;;;;5112533;28;20186;-84
2021/06/01 09:03:57;;;;;;;4.68;2.47;;;17.90;57.10;;;;;;5113790;28;20634;-85
2021/06/01 09:22:40;;;;;;;3.50;1.77;;;17.60;54.40;;;;;;5112535;28;20707;-84
2021/06/01 09:25:13;;;;;;;2.58;1.85;;;17.70;53.80;;;;;;5111808;28;20306;-85
2021/06/01 09:27:51;;;;;;;2.70;1.73;;;17.70;52.60;;;;;;5112775;28;20169;-84
2021/06/01 09:30:38;;;;;;;126.00;14.18;;;17.80;54.10;;;;;;5112761;28;20184;-82
2021/06/01 09:33:25;;;;;;;5.30;1.85;;;17.70;56.10;;;;;;5111649;28;20587;-84
2021/06/01 09:35:57;;;;;;;5.05;1.80;;;17.70;53.80;;;;;;5117201;28;20551;-83
2021/06/01 09:38:29;;;;;;;7.63;1.80;;;17.90;55.70;;;;;;5118737;28;20690;-83
2021/06/01 09:41:18;;;;;;;6.15;2.03;;;18.00;55.20;;;;;;5111938;28;20658;-85
2021/06/01 09:43:58;;;;;;;4.75;2.55;;;18.10;54.60;;;;;;5113904;28;20264;-85
2021/06/01 09:46:27;;;;;;;5.65;2.20;;;18.10;54.60;;;;;;5117604;28;20174;-84
2021/06/01 09:49:17;;;;;;;4.72;2.20;;;18.10;54.60;;;;;;5116489;28;20177;-83
2021/06/01 09:51:59;;;;;;;4.18;2.20;;;18.10;54.20;;;;;;5108375;28;20225;-83
2021/06/01 09:54:39;;;;;;;7.85;1.88;;;18.20;54.50;;;;;;5115201;28;20638;-83
2021/06/01 09:57:23;;;;;;;9.30;2.35;;;18.50;56.00;;;;;;5116481;28;20181;-85
2021/06/01 10:00:11;;;;;;;4.78;2.53;;;19.00;57.80;;;;;;5114766;28;20281;-83
2021/06/01 10:02:37;;;;;;;4.65;2.22;;;19.70;58.80;;;;;;5113534;28;20605;-83
2021/06/01 10:05:21;;;;;;;4.40;2.30;;;20.20;56.40;;;;;;5116841;28;20215;-84
2021/06/01 10:07:52;;;;;;;5.85;2.35;;;20.70;54.00;;;;;;5116360;28;20206;-85
2021/06/01 10:10:27;;;;;;;9.82;2.17;;;20.70;56.10;;;;;;5115192;28;20207;-83
2021/06/01 10:12:59;;;;;;;2.70;2.40;;;20.80;54.50;;;;;;5114607;28;20207;-83
2021/06/01 10:15:27;;;;;;;3.55;1.90;;;20.40;53.50;;;;;;5116243;28;20716;-83
2021/06/01 10:17:53;;;;;;;2.67;1.77;;;20.10;54.00;;;;;;5116976;28;20235;-83
2021/06/01 10:20:22;;;;;;;3.80;2.58;;;19.70;54.60;;;;;;5115204;28;20186;-83
2021/06/01 10:22:49;;;;;;;8.75;2.13;;;19.40;55.00;;;;;;5116282;28;20185;-83
2021/06/01 10:25:16;;;;;;;5.05;2.58;;;19.20;54.60;;;;;;5114352;28;20185;-84
2021/06/01 10:27:45;;;;;;;8.75;2.35;;;19.00;53.60;;;;;;5115273;28;20174;-83
2021/06/01 10:30:14;;;;;;;5.22;1.80;;;18.60;53.40;;;;;;5115672;28;20182;-83
2021/06/01 10:32:46;;;;;;;6.53;2.28;;;18.20;54.10;;;;;;5115870;28;20201;-83
2021/06/01 10:35:16;;;;;;;3.33;1.88;;;17.90;53.70;;;;;;5115184;28;20174;-83
2021/06/01 10:52:02;;;;;;;11.60;2.50;;;17.90;58.10;;;;;;5114490;28;20692;-84
2021/06/01 10:54:48;;;;;;;3.63;2.00;;;17.90;56.00;;;;;;5112971;28;20282;-84
2021/06/01 10:57:19;;;;;;;6.68;1.85;;;17.80;56.50;;;;;;5113449;28;20181;-84
2021/06/01 11:02:23;;;;;;;2.17;1.98;;;17.90;56.30;;;;;;5114050;28;20678;-85
2021/06/01 11:05:11;;;;;;;3.78;1.88;;;17.90;55.40;;;;;;5114304;28;20178;-84
2021/06/01 11:07:53;;;;;;;3.17;1.92;;;17.90;55.80;;;;;;5113459;28;20567;-84
2021/06/01 11:10:43;;;;;;;4.68;1.80;;;18.30;54.20;;;;;;5113469;28;20178;-85
2021/06/01 11:13:29;;;;;;;3.42;1.60;;;18.80;52.40;;;;;;5112681;28;20206;-84
2021/06/01 11:15:58;;;;;;;2.05;1.88;;;18.90;52.20;;;;;;5099937;28;20189;-85
2021/06/01 11:18:29;;;;;;;3.28;1.70;;;18.70;52.80;;;;;;5112751;28;20170;-83
2021/06/01 11:21:20;;;;;;;5.25;1.92;;;18.50;55.80;;;;;;5113245;28;20182;-82
2021/06/01 11:35:32;;;;;;;4.15;2.22;;;18.50;56.20;;;;;;5115112;28;20213;-83
2021/06/01 11:38:17;;;;;;;3.33;1.95;;;18.40;57.40;;;;;;5115457;28;20204;-83
2021/06/01 11:40:59;;;;;;;3.35;1.70;;;18.50;57.40;;;;;;5115071;28;20202;-82
2021/06/01 11:43:25;;;;;;;3.58;1.90;;;18.70;56.70;;;;;;5113659;28;20223;-82
2021/06/01 11:46:14;;;;;;;3.10;1.90;;;18.90;57.00;;;;;;5113983;28;20622;-82
2021/06/01 11:51:28;;;;;;;3.55;1.80;;;19.70;54.50;;;;;;5114496;28;20181;-83
2021/06/01 11:54:03;;;;;;;4.85;2.17;;;19.30;54.20;;;;;;5096349;28;20276;-83
2021/06/01 12:02:34;;;;;;;3.97;1.90;;;19.60;54.60;;;;;;5101036;28;20178;-82
2021/06/01 12:11:15;;;;;;;6.47;2.42;;;19.30;58.20;;;;;;5114206;28;20250;-83
2021/06/01 12:18:55;;;;;;;4.07;2.50;;;18.90;55.90;;;;;;5114412;28;20598;-82
2021/06/01 12:21:29;;;;;;;5.95;2.30;;;18.70;55.60;;;;;;5114209;28;20173;-81
2021/06/01 12:24:11;;;;;;;2.08;1.52;;;18.40;56.20;;;;;;5114444;28;20162;-83
2021/06/01 12:26:53;;;;;;;2.95;2.05;;;18.30;56.70;;;;;;5113232;28;20654;-82
2021/06/01 12:32:18;;;;;;;7.85;2.40;;;18.50;56.60;;;;;;5114148;28;20212;-82
2021/06/01 12:45:23;;;;;;;2.97;2.13;;;18.80;56.30;;;;;;5113636;28;20727;-83
2021/06/01 13:21:35;;;;;;;6.63;2.00;;;18.70;54.70;;;;;;5113336;28;20189;-84
2021/06/01 13:46:20;;;;;;;3.42;2.00;;;18.20;53.30;;;;;;5112118;28;20664;-84
2021/06/01 13:56:16;;;;;;;4.88;2.03;;;18.80;55.90;;;;;;5112484;28;20216;-85
2021/06/01 14:01:24;;;;;;;3.53;2.03;;;19.40;53.90;;;;;;5111232;28;20182;-83
2021/06/01 15:29:08;;;;;;;6.18;2.17;;;18.40;58.30;;;;;;5113221;28;20293;-83
2021/06/01 15:50:35;;;;;;;3.38;1.98;;;18.40;59.90;;;;;;5102615;28;20194;-83
2021/06/01 15:53:31;;;;;;;4.40;1.98;;;18.50;59.50;;;;;;5111744;28;20197;-84
2021/06/01 16:21:40;;;;;;;3.38;2.13;;;19.00;57.40;;;;;;5113477;28;20228;-84
2021/06/01 16:43:32;;;;;;;12.70;3.40;;;18.90;59.10;;;;;;5111720;28;20797;-84
2021/06/01 17:05:28;;;;;;;11.88;4.53;;;17.80;64.20;;;;;;5110305;28;20281;-85
2021/06/01 17:08:16;;;;;;;7.53;4.30;;;17.70;65.10;;;;;;5109584;28;20594;-85
2021/06/01 17:13:34;;;;;;;14.38;5.38;;;17.50;66.90;;;;;;5102530;28;20306;-84
2021/06/01 17:16:01;;;;;;;9.90;3.88;;;17.40;67.10;;;;;;5108970;28;20209;-85
2021/06/01 17:35:03;;;;;;;17.70;8.50;;;16.60;75.80;;;;;;5110851;28;20196;-86
2021/06/01 17:37:20;;;;;;;29.33;17.20;;;16.60;80.00;;;;;;5109153;28;20212;-86
2021/06/01 17:39:45;;;;;;;45.97;24.15;;;16.50;77.20;;;;;;5112216;28;20238;-85
2021/06/01 17:42:17;;;;;;;30.52;15.40;;;16.40;78.60;;;;;;5111430;28;20190;-84
2021/06/01 17:44:46;;;;;;;25.70;12.98;;;16.30;78.90;;;;;;5113441;28;20173;-85
2021/06/01 17:47:17;;;;;;;32.55;12.05;;;16.10;81.80;;;;;;5112313;28;20180;-86
2021/06/01 17:49:47;;;;;;;21.20;11.55;;;16.10;82.80;;;;;;5111407;28;20180;-86
2021/06/01 17:52:13;;;;;;;23.50;12.02;;;15.90;82.90;;;;;;5112417;28;20197;-85
2021/06/01 17:54:45;;;;;;;22.77;11.20;;;15.90;82.60;;;;;;5110398;28;20257;-85
2021/06/01 17:57:11;;;;;;;20.30;10.32;;;15.80;83.40;;;;;;5112367;28;20174;-85
2021/06/01 17:59:38;;;;;;;34.05;9.98;;;15.70;85.50;;;;;;5110865;28;20205;-86
2021/06/01 18:02:05;;;;;;;19.17;9.55;;;15.50;87.50;;;;;;5112066;28;20189;-85
2021/06/01 18:04:31;;;;;;;17.92;8.52;;;15.50;89.30;;;;;;5108244;28;20231;-85
2021/06/01 18:07:06;;;;;;;19.90;8.25;;;15.40;90.70;;;;;;5111843;28;20189;-84
2021/06/01 18:10:19;;;;;;;19.77;9.13;;;15.30;90.70;;;;;;5112487;28;20173;-85
2021/06/01 19:24:31;;;;;;;29.52;14.52;;;14.20;99.90;;;;;;5083124;28;20181;-83
2021/06/01 19:51:10;;;;;;;170.52;63.67;;;14.10;99.90;;;;;;5113144;28;20590;-83
2021/06/01 19:53:39;;;;;;;208.95;79.32;;;14.10;99.90;;;;;;5112081;28;20202;-83
2021/06/01 19:56:06;;;;;;;120.90;54.97;;;14.10;99.90;;;;;;5108627;28;20178;-83
2021/06/01 19:58:34;;;;;;;111.85;49.67;;;14.10;99.90;;;;;;5094734;28;20205;-83
2021/06/01 20:01:06;;;;;;;102.00;46.88;;;14.10;99.90;;;;;;5110767;28;21673;-84
2021/06/01 20:03:33;;;;;;;95.57;43.88;;;14.10;99.90;;;;;;5109290;28;20178;-83
2021/06/01 20:05:59;;;;;;;99.45;42.47;;;14.10;99.90;;;;;;5093566;28;20180;-84
2021/06/01 20:08:26;;;;;;;159.32;67.93;;;14.00;99.90;;;;;;5113245;28;20196;-84
2021/06/01 20:10:54;;;;;;;129.23;56.03;;;14.00;99.90;;;;;;5113614;27;20233;-84
2021/06/01 20:13:22;;;;;;;99.88;41.72;;;14.10;99.90;;;;;;5110568;28;20702;-84
2021/06/01 20:15:47;;;;;;;93.35;39.78;;;14.00;99.90;;;;;;5113738;28;20223;-84
2021/06/01 20:18:13;;;;;;;79.47;30.70;;;14.00;99.90;;;;;;5112669;28;20579;-84